Time;durP1;ratioP1;P1;durP2;ratioP2;P2;SDS_P1;SDS_P2;PMS_P1;PMS_P2;Temp;Humidity;BMP_temperature;BMP_pressure;BME280_temperature;BME280_humidity;BME280_pressure;Samples;Min_cycle;Max_cycle;Signal;HPM_P1;HPM_P2
2023/03/05 00:00:08;;;;;;;6.43;2.53;;;;;;;2.11;95.71;100227.94;4955736;28;20365;-74
2023/03/05 00:02:34;;;;;;;5.68;2.25;;;;;;;2.13;95.92;100226.28;4973256;28;20405;-75
2023/03/05 00:04:59;;;;;;;5.45;2.13;;;;;;;2.14;96.36;100229.88;4973071;28;20062;-74
2023/03/05 00:07:24;;;;;;;8.05;2.67;;;;;;;2.12;96.44;100219.03;4973034;28;20054;-75
2023/03/05 00:09:50;;;;;;;8.15;2.88;;;;;;;2.12;96.98;100229.53;4972805;28;20034;-75
2023/03/05 00:12:16;;;;;;;7.35;2.65;;;;;;;2.13;97.17;100225.47;4973672;28;20121;-76
2023/03/05 00:14:41;;;;;;;7.75;2.67;;;;;;;2.13;97.68;100219.84;4973615;28;20034;-75
2023/03/05 00:17:06;;;;;;;4.53;2.42;;;;;;;2.18;98.09;100225.75;4974798;28;20026;-75
2023/03/05 00:19:32;;;;;;;4.97;2.30;;;;;;;2.15;97.80;100218.16;4975156;28;20121;-77
2023/03/05 00:21:57;;;;;;;5.05;2.42;;;;;;;2.15;97.56;100220.97;4974053;28;20085;-76
2023/03/05 00:24:23;;;;;;;3.85;2.28;;;;;;;2.11;96.11;100220.28;4957575;28;20022;-74
2023/03/05 00:26:48;;;;;;;4.90;2.60;;;;;;;2.10;96.14;100212.25;4975154;28;20173;-76
2023/03/05 00:29:17;;;;;;;4.75;2.38;;;;;;;1.83;96.41;100176.63;4974781;28;20482;-74
2023/03/05 00:31:43;;;;;;;3.05;1.80;;;;;;;2.09;95.81;100205.03;4974815;28;20031;-75
2023/03/05 00:34:12;;;;;;;8.57;2.03;;;;;;;2.08;96.19;100206.28;4974886;28;20041;-75
2023/03/05 00:36:42;;;;;;;4.05;2.00;;;;;;;2.07;96.05;100199.84;4954068;29;20273;-76
2023/03/05 00:39:07;;;;;;;7.40;2.33;;;;;;;2.06;96.41;100201.06;4955249;28;20483;-75
2023/03/05 00:41:33;;;;;;;5.47;1.98;;;;;;;1.99;96.24;100175.88;4955575;28;20063;-74
2023/03/05 00:43:58;;;;;;;6.70;1.95;;;;;;;2.07;96.96;100182.13;4955518;29;20023;-75
2023/03/05 00:46:26;;;;;;;4.15;2.10;;;;;;;2.07;96.62;100190.59;4955364;29;20019;-74
2023/03/05 00:48:52;;;;;;;5.82;2.53;;;;;;;2.10;96.64;100186.88;4955351;28;20069;-74
2023/03/05 00:51:17;;;;;;;7.90;2.20;;;;;;;2.12;96.72;100184.44;4954438;28;20477;-74
2023/03/05 00:53:43;;;;;;;9.00;3.13;;;;;;;2.08;96.83;100187.34;4953032;28;20031;-73
2023/03/05 00:56:08;;;;;;;6.20;2.85;;;;;;;2.03;96.89;100165.31;4952847;28;20027;-75
2023/03/05 00:58:34;;;;;;;7.70;2.90;;;;;;;2.07;97.87;100173.69;4953193;29;20413;-75
2023/03/05 01:01:01;;;;;;;8.18;3.20;;;;;;;2.08;98.10;100166.81;4952812;28;20054;-75
2023/03/05 01:03:27;;;;;;;7.03;3.13;;;;;;;2.04;98.69;100161.28;4952860;28;20023;-76
2023/03/05 01:05:52;;;;;;;7.50;3.45;;;;;;;2.03;99.02;100156.88;4952973;28;20114;-73
2023/03/05 01:08:18;;;;;;;8.02;3.58;;;;;;;2.01;99.45;100169.78;4952723;29;20481;-76
2023/03/05 01:10:44;;;;;;;8.10;3.03;;;;;;;2.01;99.77;100162.13;4952563;28;20497;-74
2023/03/05 01:13:09;;;;;;;7.93;3.67;;;;;;;2.00;100.00;100163.34;4953142;29;20030;-75
2023/03/05 01:15:34;;;;;;;6.70;3.70;;;;;;;1.96;100.00;100157.00;4952654;29;20137;-74
2023/03/05 01:18:00;;;;;;;10.68;5.30;;;;;;;1.90;100.00;100148.28;4951569;29;20565;-76
2023/03/05 01:20:25;;;;;;;12.90;4.75;;;;;;;1.96;100.00;100136.50;4952904;29;20031;-75
2023/03/05 01:22:51;;;;;;;15.70;4.50;;;;;;;1.91;100.00;100138.59;4953146;28;20024;-75
2023/03/05 01:25:17;;;;;;;10.30;5.18;;;;;;;1.86;100.00;100138.34;4954853;28;20114;-75
2023/03/05 01:27:43;;;;;;;12.02;4.72;;;;;;;1.84;100.00;100144.41;4955220;28;20173;-75
2023/03/05 01:30:09;;;;;;;10.13;5.07;;;;;;;1.82;100.00;100134.81;4954708;28;20465;-74
2023/03/05 01:32:35;;;;;;;11.15;4.50;;;;;;;1.80;100.00;100129.59;4954716;28;20098;-75
2023/03/05 01:35:01;;;;;;;14.52;5.07;;;;;;;1.56;100.00;100087.94;4954441;29;20513;-74
2023/03/05 01:37:28;;;;;;;12.48;5.43;;;;;;;1.77;100.00;100119.22;4965149;28;20054;-74
2023/03/05 01:39:54;;;;;;;8.13;4.13;;;;;;;1.79;100.00;100118.78;4973764;28;20038;-73
2023/03/05 01:42:20;;;;;;;8.75;3.90;;;;;;;1.69;100.00;100109.34;4973835;28;20111;-74
2023/03/05 01:45:11;;;;;;;7.43;4.35;;;;;;;1.78;100.00;100105.94;4973575;28;20053;-75
2023/03/05 01:47:37;;;;;;;6.65;4.38;;;;;;;1.77;100.00;100118.44;4973519;28;20030;-74
2023/03/05 01:50:05;;;;;;;10.60;4.25;;;;;;;1.76;100.00;100100.72;4973632;28;20038;-75
2023/03/05 01:52:31;;;;;;;9.73;4.47;;;;;;;1.74;100.00;100103.22;4973899;28;20482;-73
2023/03/05 01:54:59;;;;;;;10.25;3.78;;;;;;;1.70;100.00;100094.03;4973476;28;20573;-74
2023/03/05 01:57:37;;;;;;;5.55;3.55;;;;;;;1.76;100.00;100099.94;4956348;28;20113;-76
2023/03/05 02:00:16;;;;;;;7.15;4.00;;;;;;;1.76;100.00;100097.91;4956288;28;20153;-75
2023/03/05 02:02:43;;;;;;;7.53;3.63;;;;;;;1.66;100.00;100098.16;4974497;28;20064;-74
2023/03/05 02:05:12;;;;;;;8.10;2.63;;;;;;;1.67;100.00;100094.13;4978748;28;20037;-76
2023/03/05 02:07:41;;;;;;;8.95;2.90;;;;;;;1.71;100.00;100111.72;4963118;28;20388;-75
2023/03/05 02:10:18;;;;;;;8.27;3.03;;;;;;;1.74;100.00;100093.97;4982713;28;20480;-75
2023/03/05 02:12:43;;;;;;;8.48;2.85;;;;;;;1.64;100.00;100098.63;4981236;28;20037;-75
2023/03/05 02:15:09;;;;;;;8.90;3.22;;;;;;;1.59;100.00;100092.69;4978816;28;20038;-75
2023/03/05 02:17:35;;;;;;;10.18;3.65;;;;;;;1.59;100.00;100093.50;4978545;28;20034;-74
2023/03/05 02:20:08;;;;;;;7.53;3.40;;;;;;;1.57;100.00;100095.94;4977763;28;20399;-75
2023/03/05 02:22:33;;;;;;;6.97;3.13;;;;;;;1.53;100.00;100088.81;4959835;28;20062;-75
2023/03/05 02:24:59;;;;;;;9.32;3.30;;;;;;;1.51;100.00;100094.88;4977100;28;20472;-75
2023/03/05 02:27:33;;;;;;;10.07;2.97;;;;;;;1.55;100.00;100080.72;4976788;28;20034;-74
2023/03/05 02:30:00;;;;;;;7.07;2.97;;;;;;;1.53;100.00;100086.78;4976656;28;20034;-74
2023/03/05 02:32:25;;;;;;;8.18;3.78;;;;;;;1.48;100.00;100079.66;4976865;28;20424;-76
2023/03/05 02:34:51;;;;;;;10.63;3.42;;;;;;;1.44;100.00;100086.59;4977009;28;20090;-75
2023/03/05 02:37:16;;;;;;;8.45;3.60;;;;;;;1.39;100.00;100082.28;4976708;28;20047;-76
2023/03/05 02:39:41;;;;;;;8.88;3.22;;;;;;;1.37;100.00;100083.94;4975480;28;20030;-75
2023/03/05 02:42:07;;;;;;;7.60;2.95;;;;;;;1.37;100.00;100073.47;4976495;28;20473;-76
2023/03/05 02:44:32;;;;;;;6.75;3.45;;;;;;;1.35;100.00;100083.59;4959128;28;20101;-74
2023/03/05 02:46:58;;;;;;;5.63;3.50;;;;;;;1.33;100.00;100086.81;4942657;28;20465;-74
2023/03/05 02:49:23;;;;;;;7.15;3.42;;;;;;;1.28;100.00;100083.72;4974721;28;20374;-74
2023/03/05 02:51:49;;;;;;;6.85;2.70;;;;;;;1.28;100.00;100078.91;4974431;28;20075;-75
2023/03/05 02:54:14;;;;;;;6.72;3.25;;;;;;;1.20;100.00;100074.66;4974625;28;20035;-74
2023/03/05 02:56:40;;;;;;;7.60;3.95;;;;;;;1.17;100.00;100075.50;4974680;28;20088;-74
2023/03/05 02:59:06;;;;;;;6.53;2.88;;;;;;;1.12;100.00;100067.56;4957527;28;20031;-74
2023/03/05 03:01:31;;;;;;;5.30;2.55;;;;;;;1.13;100.00;100062.75;4974337;28;20106;-74
2023/03/05 03:03:57;;;;;;;8.85;3.67;;;;;;;1.08;100.00;100066.06;4974692;28;20038;-74
2023/03/05 03:06:22;;;;;;;4.55;2.90;;;;;;;1.04;100.00;100066.94;4956699;28;20054;-75
2023/03/05 03:08:47;;;;;;;6.28;2.95;;;;;;;1.02;100.00;100066.56;4974104;28;20085;-75
2023/03/05 03:11:13;;;;;;;10.85;2.83;;;;;;;1.02;100.00;100069.38;4973992;28;20110;-74
2023/03/05 03:13:39;;;;;;;5.20;2.47;;;;;;;0.98;100.00;100062.25;4973930;28;20395;-76
2023/03/05 03:16:08;;;;;;;5.50;3.38;;;;;;;1.03;100.00;100068.16;4973838;28;20039;-74
2023/03/05 03:18:33;;;;;;;6.35;2.47;;;;;;;1.04;100.00;100069.75;4974463;28;20033;-75
2023/03/05 03:20:59;;;;;;;5.78;2.63;;;;;;;1.06;100.00;100060.88;4958078;28;20042;-75
2023/03/05 03:23:24;;;;;;;4.95;2.38;;;;;;;1.11;100.00;100060.34;4976595;28;20038;-74
2023/03/05 03:25:50;;;;;;;4.45;2.40;;;;;;;1.13;100.00;100043.84;4975838;28;20027;-75
2023/03/05 03:28:15;;;;;;;6.72;2.40;;;;;;;1.10;100.00;100039.09;4959041;28;20054;-75
2023/03/05 03:30:41;;;;;;;5.10;2.00;;;;;;;1.07;100.00;100039.16;4958950;28;20027;-75
2023/03/05 03:33:07;;;;;;;4.20;1.70;;;;;;;0.97;100.00;100036.13;4958742;28;20519;-77
2023/03/05 03:35:32;;;;;;;5.30;1.98;;;;;;;0.90;100.00;100041.94;4975563;28;20117;-74
2023/03/05 03:37:57;;;;;;;5.07;2.47;;;;;;;0.84;100.00;100032.41;4975586;28;20109;-75
2023/03/05 03:40:23;;;;;;;5.60;2.30;;;;;;;0.71;100.00;100014.63;4975857;28;20081;-76
2023/03/05 03:42:51;;;;;;;4.03;2.67;;;;;;;0.75;100.00;100025.78;4976074;28;20022;-74
2023/03/05 03:45:16;;;;;;;5.80;2.40;;;;;;;0.74;100.00;100022.16;4975564;28;20027;-75
2023/03/05 03:47:42;;;;;;;3.00;1.52;;;;;;;0.72;100.00;100012.56;4975635;28;20404;-75
2023/03/05 03:50:08;;;;;;;4.97;1.83;;;;;;;0.69;100.00;100005.00;4975487;28;20035;-75
2023/03/05 03:52:33;;;;;;;2.95;1.40;;;;;;;0.68;100.00;100000.59;4975513;28;20035;-74
2023/03/05 03:55:00;;;;;;;5.38;2.63;;;;;;;0.58;100.00;99993.97;4975271;28;20034;-74
2023/03/05 03:57:28;;;;;;;4.60;1.90;;;;;;;0.60;100.00;99994.34;4938929;29;20035;-75
2023/03/05 03:59:53;;;;;;;4.53;2.20;;;;;;;0.54;100.00;99988.44;4939280;29;20081;-75
2023/03/05 04:02:19;;;;;;;3.20;1.90;;;;;;;0.53;100.00;99986.84;4974629;28;20485;-73
2023/03/05 04:04:44;;;;;;;4.38;1.58;;;;;;;0.59;100.00;99993.56;4975681;28;20027;-76
2023/03/05 04:07:09;;;;;;;1.98;1.40;;;;;;;0.51;100.00;99983.69;4957724;28;20469;-75
2023/03/05 04:09:35;;;;;;;7.43;2.22;;;;;;;0.57;100.00;99987.56;4975066;28;20114;-72
2023/03/05 04:12:00;;;;;;;3.33;1.83;;;;;;;0.53;100.00;99989.66;4957535;28;20038;-74
2023/03/05 04:14:26;;;;;;;3.75;2.47;;;;;;;0.56;100.00;99977.56;4957703;28;20034;-74
2023/03/05 04:16:52;;;;;;;6.57;2.20;;;;;;;0.57;100.00;99983.94;4974943;28;20027;-74
2023/03/05 04:19:17;;;;;;;9.60;2.42;;;;;;;0.65;100.00;99974.16;4975067;28;20023;-75
2023/03/05 04:21:43;;;;;;;5.40;2.63;;;;;;;0.58;100.00;99963.06;4975147;28;20041;-76
2023/03/05 04:24:08;;;;;;;6.05;3.10;;;;;;;0.64;100.00;99974.59;4956966;28;20428;-73
2023/03/05 04:26:34;;;;;;;10.43;2.95;;;;;;;0.68;100.00;99961.25;4974413;28;20029;-74
2023/03/05 04:28:59;;;;;;;8.55;2.58;;;;;;;0.63;100.00;99953.31;4974650;28;20035;-73
2023/03/05 04:31:25;;;;;;;7.68;2.45;;;;;;;0.63;100.00;99953.31;4974524;28;20027;-74
2023/03/05 04:33:50;;;;;;;4.07;2.30;;;;;;;0.62;100.00;99958.16;4974746;28;20030;-73
2023/03/05 04:36:15;;;;;;;4.35;2.13;;;;;;;0.60;100.00;99940.94;4974189;28;20030;-74
2023/03/05 04:38:41;;;;;;;8.80;2.97;;;;;;;0.53;100.00;99939.06;4974569;28;20026;-74
2023/03/05 04:41:06;;;;;;;4.88;2.58;;;;;;;0.51;100.00;99944.34;4974340;28;20027;-73
2023/03/05 04:43:31;;;;;;;3.65;2.20;;;;;;;0.53;100.00;99944.69;4957018;28;20074;-74
2023/03/05 04:45:57;;;;;;;5.93;3.05;;;;;;;0.59;100.00;99940.16;4974284;28;20027;-73
2023/03/05 04:48:22;;;;;;;;;;;;;;;0.63;100.00;99942.06;4974448;28;20400;-74
2023/03/05 04:50:48;;;;;;;7.17;3.30;;;;;;;0.74;100.00;99931.41;4955708;28;20387;-73
2023/03/05 04:53:13;;;;;;;5.47;2.40;;;;;;;0.76;100.00;99926.94;4974058;28;20054;-74
2023/03/05 04:55:38;;;;;;;5.60;2.45;;;;;;;0.76;100.00;99934.59;4973767;28;20023;-73
2023/03/05 04:58:04;;;;;;;5.63;1.90;;;;;;;0.79;100.00;99931.69;4974426;28;20105;-73
2023/03/05 05:00:29;;;;;;;6.13;2.15;;;;;;;0.85;100.00;99921.50;4974176;28;20422;-74
2023/03/05 05:02:55;;;;;;;7.57;2.35;;;;;;;0.84;100.00;99919.13;4973932;28;20097;-75
2023/03/05 05:05:22;;;;;;;3.70;2.13;;;;;;;0.78;100.00;99912.44;4973931;28;20023;-73
2023/03/05 05:07:48;;;;;;;4.47;1.90;;;;;;;0.63;100.00;99895.09;4973687;28;20034;-73
2023/03/05 05:10:15;;;;;;;5.55;2.10;;;;;;;0.78;100.00;99909.63;4973937;28;20022;-73
2023/03/05 05:12:40;;;;;;;1.90;1.30;;;;;;;0.73;100.00;99919.34;4956718;28;20066;-72
2023/03/05 05:15:07;;;;;;;8.20;1.90;;;;;;;0.73;100.00;99912.94;4973762;28;20053;-73
2023/03/05 05:17:33;;;;;;;2.88;1.55;;;;;;;0.68;100.00;99911.44;4973522;28;20035;-73
2023/03/05 05:19:59;;;;;;;3.60;1.55;;;;;;;0.75;100.00;99913.31;4956402;28;20030;-73
2023/03/05 05:22:26;;;;;;;2.50;1.70;;;;;;;0.76;100.00;99915.69;4973656;28;20034;-74
2023/03/05 05:24:52;;;;;;;2.08;1.42;;;;;;;0.72;100.00;99920.56;4973658;28;20117;-74
2023/03/05 05:27:17;;;;;;;4.10;2.00;;;;;;;0.63;100.00;99906.31;4956286;28;20228;-74
2023/03/05 05:29:45;;;;;;;4.05;1.63;;;;;;;0.68;100.00;99910.63;4973877;28;20050;-73
2023/03/05 05:32:11;;;;;;;10.07;4.75;;;;;;;0.66;100.00;99908.28;4973502;28;20026;-74
2023/03/05 05:34:36;;;;;;;2.78;1.70;;;;;;;0.68;100.00;99911.44;4973821;28;20034;-73
2023/03/05 05:37:01;;;;;;;5.68;2.00;;;;;;;0.69;100.00;99909.41;4972904;28;20051;-74
2023/03/05 05:39:27;;;;;;;6.22;3.55;;;;;;;0.71;100.00;99913.41;4973508;28;20037;-74
2023/03/05 05:41:52;;;;;;;2.83;1.70;;;;;;;0.73;100.00;99910.91;4973419;28;20053;-74
2023/03/05 05:44:19;;;;;;;4.03;1.92;;;;;;;0.75;100.00;99904.88;4973706;28;20029;-73
2023/03/05 05:46:44;;;;;;;3.78;1.95;;;;;;;0.74;100.00;99912.50;4973647;28;20026;-74
2023/03/05 05:49:10;;;;;;;3.83;1.85;;;;;;;0.77;100.00;99905.22;4973467;28;20035;-74
2023/03/05 05:51:36;;;;;;;4.93;1.83;;;;;;;0.70;100.00;99897.75;4973180;28;20097;-73
2023/03/05 05:54:03;;;;;;;4.28;1.92;;;;;;;0.81;100.00;99895.47;4973444;28;20117;-72
2023/03/05 05:56:29;;;;;;;10.32;3.58;;;;;;;0.84;100.00;99902.25;4973292;28;20030;-73
2023/03/05 05:58:55;;;;;;;8.75;3.05;;;;;;;0.91;100.00;99902.09;4973659;28;20042;-73
2023/03/05 06:01:25;;;;;;;5.10;2.38;;;;;;;0.98;100.00;99913.97;4973285;28;20035;-75
2023/03/05 06:03:51;;;;;;;5.68;2.25;;;;;;;0.93;100.00;99903.22;4956156;28;20022;-74
2023/03/05 06:06:18;;;;;;;6.50;2.63;;;;;;;0.90;100.00;99906.94;4971690;28;20492;-74
2023/03/05 06:08:46;;;;;;;3.97;2.13;;;;;;;0.87;100.00;99902.16;4956080;28;20038;-75
2023/03/05 06:11:11;;;;;;;7.25;2.88;;;;;;;0.85;100.00;99901.03;4956135;28;20432;-74
2023/03/05 06:13:46;;;;;;;9.82;3.95;;;;;;;0.90;100.00;99906.13;4973383;28;20499;-73
2023/03/05 06:16:16;;;;;;;10.20;3.92;;;;;;;0.96;100.00;99898.78;4972071;28;20030;-72
2023/03/05 06:18:50;;;;;;;7.57;4.45;;;;;;;0.98;100.00;99899.91;4956440;28;20033;-74
2023/03/05 06:21:18;;;;;;;12.57;3.92;;;;;;;0.90;100.00;99898.50;4940411;28;20027;-75
2023/03/05 06:23:45;;;;;;;12.38;5.82;;;;;;;0.76;100.00;99898.03;4956713;28;20063;-73
2023/03/05 06:26:15;;;;;;;13.82;4.93;;;;;;;0.73;100.00;99896.06;4956563;28;20115;-74
2023/03/05 06:28:41;;;;;;;14.88;4.53;;;;;;;0.67;100.00;99898.59;4924614;28;20443;-74
2023/03/05 06:31:31;;;;;;;7.07;4.03;;;;;;;0.68;100.00;99902.22;4955181;28;20074;-75
2023/03/05 06:34:01;;;;;;;10.98;3.72;;;;;;;0.76;100.00;99900.84;4959373;28;20567;-73
2023/03/05 06:36:29;;;;;;;7.72;3.65;;;;;;;0.75;100.00;99900.03;4955905;28;20070;-74
2023/03/05 06:38:55;;;;;;;9.88;4.60;;;;;;;0.75;100.00;99893.63;4973464;28;20105;-75
2023/03/05 06:41:23;;;;;;;10.38;4.35;;;;;;;0.75;100.00;99888.78;4955775;28;20535;-75
2023/03/05 06:43:49;;;;;;;10.90;4.45;;;;;;;0.79;100.00;99892.31;4973342;28;20150;-75
2023/03/05 06:46:19;;;;;;;14.77;4.93;;;;;;;0.92;100.00;99893.22;4973037;28;20101;-75
2023/03/05 06:48:45;;;;;;;10.70;4.35;;;;;;;0.99;100.00;99887.44;4974649;28;20513;-74
2023/03/05 06:51:21;;;;;;;17.20;5.57;;;;;;;0.90;100.00;99890.06;4959365;28;20384;-75
2023/03/05 06:53:53;;;;;;;13.75;5.78;;;;;;;0.99;100.00;99892.25;4976509;28;20051;-75
2023/03/05 06:56:20;;;;;;;19.60;7.32;;;;;;;1.04;100.00;99891.75;4958762;28;20019;-75
2023/03/05 06:58:49;;;;;;;13.98;6.20;;;;;;;1.22;100.00;99894.13;4975503;28;20034;-75
2023/03/05 07:01:15;;;;;;;14.65;6.68;;;;;;;1.28;100.00;99901.59;4959111;28;20109;-76
2023/03/05 07:03:42;;;;;;;18.63;5.93;;;;;;;1.39;100.00;99898.53;4959118;28;20031;-75
2023/03/05 07:06:11;;;;;;;13.80;5.47;;;;;;;1.42;100.00;99894.81;4942966;28;20027;-79
2023/03/05 07:08:37;;;;;;;12.63;6.03;;;;;;;1.50;100.00;99898.25;4976271;28;20082;-80
2023/03/05 07:11:08;;;;;;;14.70;6.32;;;;;;;1.52;100.00;99893.75;4959400;28;20034;-77
2023/03/05 07:13:35;;;;;;;12.48;5.05;;;;;;;1.60;100.00;99886.69;4959252;28;20035;-76
2023/03/05 07:16:22;;;;;;;14.80;5.55;;;;;;;1.77;100.00;99893.09;4976365;28;20058;-77
2023/03/05 07:18:48;;;;;;;16.67;5.60;;;;;;;1.76;100.00;99899.97;4936936;29;20094;-76
2023/03/05 07:21:19;;;;;;;16.42;5.00;;;;;;;1.87;100.00;99884.38;4923766;29;20032;-77
2023/03/05 07:23:45;;;;;;;14.95;4.47;;;;;;;1.85;100.00;99886.03;4976037;28;20034;-75
2023/03/05 07:26:11;;;;;;;18.25;4.68;;;;;;;1.88;100.00;99873.91;4958618;28;20042;-75
2023/03/05 07:28:37;;;;;;;17.05;5.05;;;;;;;1.96;100.00;99880.13;4938259;29;20019;-75
2023/03/05 07:31:05;;;;;;;16.98;4.35;;;;;;;1.98;100.00;99886.13;4939292;29;20082;-78
2023/03/05 07:33:38;;;;;;;18.33;3.83;;;;;;;2.03;100.00;99879.94;4955813;28;20106;-75
2023/03/05 07:36:07;;;;;;;9.95;3.08;;;;;;;2.05;100.00;99874.63;4975613;28;20432;-77
2023/03/05 07:38:33;;;;;;;9.75;3.47;;;;;;;2.03;100.00;99875.09;4975443;28;20054;-73
2023/03/05 07:41:07;;;;;;;6.18;3.13;;;;;;;1.99;100.00;99871.59;4958670;28;20047;-76
2023/03/05 07:43:35;;;;;;;9.77;3.95;;;;;;;2.03;100.00;99863.81;4975455;28;20479;-76
2023/03/05 07:46:14;;;;;;;7.47;2.90;;;;;;;2.11;100.00;99861.59;4926232;28;20049;-76
2023/03/05 07:48:40;;;;;;;7.45;3.33;;;;;;;2.13;100.00;99868.38;4936200;29;20130;-73
2023/03/05 07:51:14;;;;;;;10.85;3.42;;;;;;;2.22;100.00;99871.31;4938755;29;20508;-75
2023/03/05 07:53:41;;;;;;;7.43;2.47;;;;;;;2.23;100.00;99860.84;4972800;28;20054;-75
2023/03/05 07:56:07;;;;;;;10.27;2.22;;;;;;;2.30;100.00;99864.22;4958057;28;20047;-73
2023/03/05 07:58:33;;;;;;;11.70;3.08;;;;;;;2.37;100.00;99851.16;4957752;28;20058;-76
2023/03/05 08:00:58;;;;;;;5.68;1.80;;;;;;;2.55;100.00;99859.88;4956376;28;20108;-76
2023/03/05 08:03:26;;;;;;;9.15;2.38;;;;;;;2.76;100.00;99856.41;4957474;28;20417;-76
2023/03/05 08:05:51;;;;;;;7.97;2.45;;;;;;;2.90;100.00;99853.13;4975366;28;20346;-76
2023/03/05 08:08:17;;;;;;;8.73;2.58;;;;;;;2.91;100.00;99851.91;4973592;28;20503;-74
2023/03/05 08:10:44;;;;;;;5.75;2.65;;;;;;;2.92;100.00;99845.03;4975249;28;20100;-73
2023/03/05 08:13:14;;;;;;;5.68;1.80;;;;;;;2.93;100.00;99869.19;4957432;28;20031;-76
2023/03/05 08:15:40;;;;;;;10.10;1.88;;;;;;;2.83;100.00;99861.06;4975038;28;20544;-78
2023/03/05 08:18:05;;;;;;;4.65;1.83;;;;;;;2.83;100.00;99849.78;4956755;28;20125;-78
2023/03/05 08:20:41;;;;;;;4.85;1.48;;;;;;;2.71;100.00;99848.50;4957606;28;20030;-79
2023/03/05 08:23:07;;;;;;;8.05;2.58;;;;;;;2.73;100.00;99862.97;4975003;28;20031;-79
2023/03/05 08:25:34;;;;;;;3.80;1.80;;;;;;;2.84;100.00;99857.75;4941358;28;20476;-77
2023/03/05 08:27:59;;;;;;;5.50;2.15;;;;;;;2.99;100.00;99864.53;4971431;28;20125;-77
2023/03/05 08:30:26;;;;;;;9.55;3.15;;;;;;;3.12;100.00;99878.66;4974961;28;20106;-78
2023/03/05 08:32:54;;;;;;;11.77;2.67;;;;;;;3.30;100.00;99884.50;4974406;28;20468;-78
2023/03/05 08:35:20;;;;;;;6.88;2.35;;;;;;;3.41;100.00;99889.81;4957075;28;20412;-78
2023/03/05 08:37:47;;;;;;;4.65;2.53;;;;;;;3.35;100.00;99883.16;4974356;28;20492;-75
2023/03/05 08:40:19;;;;;;;5.38;2.80;;;;;;;3.18;100.00;99890.97;4956968;28;20129;-74
2023/03/05 08:42:45;;;;;;;;;;;;;;;3.01;100.00;99886.66;4974355;28;20129;-75
2023/03/05 08:45:11;;;;;;;5.85;2.50;;;;;;;3.01;100.00;99873.34;4974475;28;19910;-75
2023/03/05 08:47:45;;;;;;;6.65;2.88;;;;;;;3.02;100.00;99860.03;4957198;28;20165;-76
2023/03/05 08:50:13;;;;;;;8.88;2.88;;;;;;;3.18;100.00;99874.78;4956911;28;20054;-75
2023/03/05 08:52:41;;;;;;;4.68;2.90;;;;;;;3.35;100.00;99871.84;4974311;28;20050;-75
2023/03/05 08:55:07;;;;;;;5.22;2.53;;;;;;;3.49;100.00;99874.19;4971315;28;20525;-74
2023/03/05 08:57:35;;;;;;;9.00;2.38;;;;;;;3.72;100.00;99875.84;4974412;28;20097;-75
2023/03/05 09:00:01;;;;;;;5.90;2.10;;;;;;;4.02;100.00;99866.69;4974318;28;20037;-75
2023/03/05 09:02:30;;;;;;;6.78;2.60;;;;;;;4.16;100.00;99849.25;4937594;29;20026;-77
2023/03/05 09:04:57;;;;;;;5.63;2.33;;;;;;;4.40;100.00;99872.19;4954748;29;20457;-76
2023/03/05 09:07:22;;;;;;;4.55;2.50;;;;;;;4.29;100.00;99886.72;4957189;28;20031;-76
2023/03/05 09:09:50;;;;;;;5.65;2.88;;;;;;;4.20;100.00;99874.56;4974017;28;20452;-76
2023/03/05 09:12:15;;;;;;;6.80;3.00;;;;;;;4.17;100.00;99879.06;4956402;28;20540;-77
2023/03/05 09:14:42;;;;;;;4.40;2.67;;;;;;;4.05;100.00;99858.13;4956409;28;20118;-78
2023/03/05 09:17:11;;;;;;;7.97;2.42;;;;;;;4.26;100.00;99878.38;4973271;28;20046;-73
2023/03/05 09:19:39;;;;;;;6.75;2.60;;;;;;;4.15;100.00;99881.59;4956574;28;20042;-72
2023/03/05 09:22:05;;;;;;;7.05;3.08;;;;;;;3.92;100.00;99879.97;4973744;28;20042;-75
2023/03/05 09:24:31;;;;;;;5.68;2.83;;;;;;;3.65;100.00;99880.50;4973680;28;20432;-74
2023/03/05 09:27:00;;;;;;;7.40;3.05;;;;;;;3.38;100.00;99882.25;4956672;28;20039;-76
2023/03/05 09:29:27;;;;;;;7.68;3.28;;;;;;;3.15;100.00;99863.63;4956379;28;20030;-77
2023/03/05 09:31:55;;;;;;;9.55;2.75;;;;;;;3.04;100.00;99851.88;4973791;28;20032;-77
2023/03/05 09:34:22;;;;;;;40.60;16.00;;;;;;;3.25;100.00;99870.16;4973980;28;20038;-75
2023/03/05 09:36:49;;;;;;;9.05;3.00;;;;;;;3.44;100.00;99861.44;4955998;28;20059;-74
2023/03/05 09:39:16;;;;;;;6.57;2.90;;;;;;;3.75;100.00;99861.59;4974005;28;20062;-76
2023/03/05 09:41:55;;;;;;;6.82;3.25;;;;;;;4.13;100.00;99860.66;4956591;28;20090;-74
2023/03/05 09:44:43;;;;;;;6.25;2.90;;;;;;;4.56;100.00;99852.19;4974057;28;20129;-76
2023/03/05 09:47:48;;;;;;;7.13;3.40;;;;;;;4.66;100.00;99858.69;4956350;28;20484;-73
2023/03/05 09:50:37;;;;;;;6.80;2.75;;;;;;;4.48;100.00;99860.13;4973483;28;20054;-74
2023/03/05 09:53:37;;;;;;;7.40;2.72;;;;;;;4.32;100.00;99859.53;4972027;28;20031;-75
2023/03/05 09:56:10;;;;;;;7.90;2.92;;;;;;;4.14;100.00;99850.94;4954661;29;20023;-76
2023/03/05 09:58:40;;;;;;;9.80;2.70;;;;;;;4.13;100.00;99855.81;4953201;29;20547;-76
2023/03/05 10:01:08;;;;;;;6.43;2.92;;;;;;;4.11;100.00;99852.66;4953219;29;20504;-76
2023/03/05 10:03:53;;;;;;;9.15;3.15;;;;;;;4.27;100.00;99849.63;4952959;29;20495;-76
2023/03/05 10:06:40;;;;;;;4.57;2.63;;;;;;;4.52;100.00;99843.00;4954456;29;20027;-76
2023/03/05 10:09:12;;;;;;;10.02;3.13;;;;;;;4.88;100.00;99846.03;4953052;29;20464;-75
2023/03/05 10:12:06;;;;;;;4.90;2.35;;;;;;;5.17;100.00;99844.88;4954766;29;20109;-75
2023/03/05 10:14:36;;;;;;;6.15;2.35;;;;;;;5.38;97.57;99856.13;4970043;28;20065;-76
2023/03/05 10:17:40;;;;;;;11.82;3.65;;;;;;;5.65;96.73;99849.72;4952856;28;20042;-76
2023/03/05 10:20:09;;;;;;;7.18;2.60;;;;;;;6.00;96.10;99840.91;4965107;28;20033;-76
2023/03/05 10:22:55;;;;;;;5.93;2.35;;;;;;;6.32;95.68;99845.97;4971361;28;20228;-76
2023/03/05 10:25:37;;;;;;;5.07;2.33;;;;;;;6.75;91.45;99843.97;4976731;28;20090;-76
2023/03/05 10:28:41;;;;;;;16.45;3.88;;;;;;;7.13;83.77;99841.28;4975913;28;20035;-77
2023/03/05 10:31:29;;;;;;;6.50;2.90;;;;;;;7.30;80.54;99838.84;4949855;28;20113;-74
2023/03/05 10:34:21;;;;;;;4.97;2.50;;;;;;;7.27;73.23;99842.66;4976994;28;20035;-76
2023/03/05 10:37:06;;;;;;;;;;;;;;;7.04;74.05;99832.81;4947527;28;20189;-76
2023/03/05 10:40:01;;;;;;;5.82;2.75;;;;;;;6.96;76.98;99826.72;4976878;28;20367;-75
2023/03/05 10:42:36;;;;;;;7.68;3.08;;;;;;;6.78;78.39;99812.56;4976533;28;20030;-74
2023/03/05 10:45:23;;;;;;;10.35;3.38;;;;;;;6.50;78.23;99794.84;4975660;28;20484;-73
2023/03/05 10:47:56;;;;;;;8.02;3.28;;;;;;;6.23;78.71;99806.25;4975702;28;20156;-73
2023/03/05 10:50:29;;;;;;;4.90;3.13;;;;;;;5.86;80.34;99808.31;4975389;28;20392;-73
2023/03/05 10:53:33;;;;;;;4.90;2.90;;;;;;;5.54;81.72;99818.22;4959779;28;20065;-76
2023/03/05 10:56:05;;;;;;;9.05;3.42;;;;;;;5.16;82.02;99804.44;4975864;28;20110;-74
2023/03/05 10:58:32;;;;;;;13.40;4.47;;;;;;;4.77;84.01;99789.06;4958584;28;20413;-73
2023/03/05 11:01:17;;;;;;;10.02;4.47;;;;;;;4.65;86.86;99794.84;4974602;28;20488;-73
2023/03/05 11:03:53;;;;;;;13.18;5.10;;;;;;;4.50;89.12;99792.56;4975740;28;20496;-72
2023/03/05 11:06:39;;;;;;;7.40;4.22;;;;;;;4.36;92.32;99787.47;4974405;28;20023;-73
2023/03/05 11:09:26;;;;;;;6.47;3.15;;;;;;;4.32;97.27;99780.34;4973790;28;20058;-75
2023/03/05 11:12:20;;;;;;;9.63;3.97;;;;;;;4.12;98.94;99794.84;4956700;29;20089;-75
2023/03/05 11:15:25;;;;;;;9.10;4.10;;;;;;;3.96;100.00;99780.94;4955820;29;20489;-73
2023/03/05 11:18:23;;;;;;;7.20;3.92;;;;;;;4.08;100.00;99778.03;4956148;29;20054;-73
2023/03/05 11:20:49;;;;;;;5.78;3.70;;;;;;;4.03;100.00;99753.19;4923316;29;20117;-75
2023/03/05 11:23:26;;;;;;;9.73;3.45;;;;;;;4.13;100.00;99768.16;4956006;29;20045;-73
2023/03/05 11:26:04;;;;;;;6.22;3.60;;;;;;;4.18;100.00;99767.56;4956013;29;20027;-74
2023/03/05 11:28:54;;;;;;;8.85;3.85;;;;;;;4.20;100.00;99769.94;4938646;29;20058;-74
2023/03/05 11:31:26;;;;;;;6.93;4.05;;;;;;;4.32;100.00;99741.56;4938907;28;20035;-72
2023/03/05 11:34:08;;;;;;;7.60;3.25;;;;;;;4.56;100.00;99752.38;4957055;28;20030;-74
2023/03/05 11:36:36;;;;;;;8.48;3.42;;;;;;;4.65;99.99;99760.88;4974912;28;20037;-74
2023/03/05 11:39:10;;;;;;;6.55;2.95;;;;;;;4.66;98.19;99745.50;4975038;28;20141;-74
2023/03/05 11:41:51;;;;;;;9.27;3.67;;;;;;;4.64;97.49;99748.78;4957566;28;20046;-73